Allerton, Illinois
Current Conditions -  °F | °C
As of 9:53 AM on Sunday 23 Nov 2014 (Local Time) from KCMI Reporting Station
Broken Clouds Broken Clouds  
Wind Chill: 52°   Ceiling: 2700
Heat Index: 52°   Visibility: 10mi
Dew Point: 47°   Wind: 16mph
Humidity: 83%   Direction: 150°SSE
Pressure: 29.73"   Gusts: NA
Location:  39.91°N, 87.94°W
Report Text: KCMI 231553Z 15014KT 10SM SCT014 BKN027 BKN070 11/08 A2973 RMK AO2 SLP067 T01110083 $
Loading
Personal Weather Stations






























Interactive Weather Map New forecast layout! Learn more

10-Day Weather Forecast

Advertisements
Track Severe Weather on mobile